Time;durP1;ratioP1;P1;durP2;ratioP2;P2;SDS_P1;SDS_P2;PMS_P1;PMS_P2;Temp;Humidity;BMP_temperature;BMP_pressure;BME280_temperature;BME280_humidity;BME280_pressure;Samples;Min_cycle;Max_cycle;Signal;HPM_P1;HPM_P2
2023/03/07 00:00:42;;;;;;;13.48;2.80;;;4.60;99.90;;;;;;5067540;28;20119;-81
2023/03/07 00:03:11;;;;;;;13.68;3.00;;;4.50;99.90;;;;;;5078669;28;20028;-82
2023/03/07 00:05:39;;;;;;;21.48;4.65;;;4.40;99.90;;;;;;5056759;28;20044;-81
2023/03/07 00:08:05;;;;;;;20.65;2.67;;;4.40;99.90;;;;;;5078795;28;20874;-81
2023/03/07 00:10:30;;;;;;;11.05;2.15;;;4.40;99.90;;;;;;5072727;28;20040;-82
2023/03/07 00:12:56;;;;;;;10.57;2.22;;;4.40;99.90;;;;;;5031052;28;20183;-82
2023/03/07 00:15:22;;;;;;;20.67;3.22;;;4.40;99.90;;;;;;5059737;28;20048;-81
2023/03/07 00:17:48;;;;;;;11.93;2.08;;;4.40;99.90;;;;;;5053593;28;20036;-82
2023/03/07 00:20:14;;;;;;;15.35;2.30;;;4.40;99.90;;;;;;5070969;28;20041;-82
2023/03/07 00:22:40;;;;;;;11.40;1.77;;;4.40;99.90;;;;;;5067817;28;20068;-81
2023/03/07 00:25:07;;;;;;;17.42;2.33;;;5.00;99.90;;;;;;5039338;28;20048;-82
2023/03/07 00:27:33;;;;;;;13.57;2.05;;;4.40;99.90;;;;;;5048597;28;20037;-81
2023/03/07 00:30:00;;;;;;;10.23;2.17;;;4.40;99.90;;;;;;5065835;28;20047;-82
2023/03/07 00:32:26;;;;;;;15.73;2.83;;;4.40;99.90;;;;;;5068227;28;20044;-82
2023/03/07 00:34:53;;;;;;;12.80;2.22;;;4.50;99.90;;;;;;5058422;28;20037;-81
2023/03/07 00:37:18;;;;;;;11.18;1.98;;;4.40;99.90;;;;;;5072806;28;20200;-80
2023/03/07 00:39:44;;;;;;;18.58;2.63;;;4.40;99.90;;;;;;5051681;28;20500;-82
2023/03/07 00:42:10;;;;;;;14.20;1.98;;;4.50;99.90;;;;;;5036650;28;20184;-81
2023/03/07 00:44:36;;;;;;;13.75;2.50;;;4.40;99.90;;;;;;5069047;28;20603;-82
2023/03/07 00:47:02;;;;;;;26.23;3.33;;;5.00;99.90;;;;;;5068786;28;20035;-79
2023/03/07 00:49:28;;;;;;;14.50;2.50;;;4.50;99.90;;;;;;5071547;28;20068;-82
2023/03/07 00:51:53;;;;;;;16.45;2.17;;;4.50;99.90;;;;;;5072653;28;20106;-82
2023/03/07 00:54:19;;;;;;;19.98;2.90;;;4.60;99.90;;;;;;5041043;28;20116;-82
2023/03/07 00:56:45;;;;;;;18.60;2.92;;;4.50;99.90;;;;;;5053869;28;20452;-82
2023/03/07 00:59:11;;;;;;;12.07;3.72;;;4.50;99.90;;;;;;5038658;28;21375;-82
2023/03/07 01:01:37;;;;;;;18.23;2.42;;;4.50;99.90;;;;;;5032667;28;20041;-81
2023/03/07 01:04:03;;;;;;;13.85;2.28;;;4.50;99.90;;;;;;5052897;28;20603;-80
2023/03/07 01:06:31;;;;;;;13.80;2.63;;;4.50;99.90;;;;;;5057330;28;20051;-81
2023/03/07 01:08:59;;;;;;;9.15;2.00;;;4.50;99.90;;;;;;5057422;28;20089;-81
2023/03/07 01:11:26;;;;;;;9.80;1.20;;;4.50;99.90;;;;;;5042192;22;20048;-78
2023/03/07 01:13:55;;;;;;;13.68;1.92;;;4.50;99.90;;;;;;4997427;28;20040;-78
2023/03/07 01:16:23;;;;;;;20.27;4.20;;;4.50;99.90;;;;;;5029048;28;20943;-79
2023/03/07 01:18:55;;;;;;;14.45;2.20;;;4.50;99.90;;;;;;5007068;28;20123;-80
2023/03/07 01:21:31;;;;;;;18.27;2.22;;;4.50;99.90;;;;;;5042210;28;20041;-80
2023/03/07 01:23:57;;;;;;;11.77;2.05;;;4.50;99.90;;;;;;5046818;28;20048;-79
2023/03/07 01:26:28;;;;;;;7.85;1.52;;;4.70;99.90;;;;;;5030251;28;20552;-79
2023/03/07 01:28:56;;;;;;;13.38;2.05;;;4.50;99.90;;;;;;5046456;28;20111;-79
2023/03/07 01:31:22;;;;;;;11.77;1.70;;;4.50;99.90;;;;;;5032681;28;20037;-81
2023/03/07 01:33:50;;;;;;;9.13;1.60;;;4.40;99.90;;;;;;5029127;28;20412;-79
2023/03/07 01:36:20;;;;;;;8.60;1.80;;;4.80;99.90;;;;;;5032104;28;20459;-80
2023/03/07 01:38:52;;;;;;;9.45;2.25;;;4.40;99.90;;;;;;5020741;28;20172;-79
2023/03/07 01:41:18;;;;;;;10.48;1.83;;;4.30;99.90;;;;;;5046693;28;20045;-80
2023/03/07 01:43:44;;;;;;;13.88;1.67;;;4.30;99.90;;;;;;5044577;28;20068;-80
2023/03/07 01:46:24;;;;;;;15.50;2.17;;;4.20;99.90;;;;;;5028542;28;20042;-78
2023/03/07 01:48:53;;;;;;;9.98;1.77;;;4.20;99.90;;;;;;5020538;28;20734;-78
2023/03/07 01:51:19;;;;;;;8.50;1.70;;;4.20;99.90;;;;;;5041560;28;20047;-79
2023/03/07 01:53:47;;;;;;;10.50;1.58;;;4.10;99.90;;;;;;5022183;28;20129;-80
2023/03/07 01:56:13;;;;;;;11.38;2.05;;;4.70;99.90;;;;;;5029042;28;20040;-78
2023/03/07 01:58:39;;;;;;;11.15;1.70;;;4.20;99.90;;;;;;5046545;28;20041;-79
2023/03/07 02:01:11;;;;;;;15.77;3.00;;;4.10;99.90;;;;;;5024231;28;20044;-80
2023/03/07 02:03:47;;;;;;;12.98;2.25;;;4.10;99.90;;;;;;5040782;28;20564;-79
2023/03/07 02:06:13;;;;;;;9.85;1.85;;;4.10;99.90;;;;;;5024380;28;22727;-78
2023/03/07 02:08:40;;;;;;;13.75;1.63;;;4.10;99.90;;;;;;5055212;28;20457;-80
2023/03/07 02:11:06;;;;;;;9.68;2.35;;;4.10;99.90;;;;;;5029826;28;20048;-79
2023/03/07 02:13:32;;;;;;;12.13;1.73;;;4.10;99.90;;;;;;5047579;28;20043;-80
2023/03/07 02:16:01;;;;;;;9.52;1.55;;;4.30;99.90;;;;;;5049238;28;20037;-79
2023/03/07 02:18:34;;;;;;;9.25;1.52;;;4.10;99.90;;;;;;5041043;28;20091;-78
2023/03/07 02:21:27;;;;;;;14.95;2.25;;;4.10;99.90;;;;;;5027737;28;20413;-78
2023/03/07 02:24:28;;;;;;;9.38;1.65;;;4.10;99.90;;;;;;5028744;28;20063;-78
2023/03/07 02:26:56;;;;;;;8.80;1.67;;;4.10;99.90;;;;;;5013121;28;20088;-79
2023/03/07 02:29:21;;;;;;;12.30;2.00;;;4.10;99.90;;;;;;5030166;28;20048;-78
2023/03/07 02:31:47;;;;;;;10.73;2.22;;;4.70;99.90;;;;;;5046351;28;20444;-79
2023/03/07 02:34:22;;;;;;;11.40;1.77;;;4.10;99.90;;;;;;5011490;28;20096;-80
2023/03/07 02:36:52;;;;;;;10.27;2.08;;;4.10;99.90;;;;;;5029982;28;20092;-78
2023/03/07 02:39:20;;;;;;;11.45;2.10;;;4.20;99.90;;;;;;5032253;28;20032;-79
2023/03/07 02:41:47;;;;;;;11.63;2.28;;;4.00;99.90;;;;;;5026874;28;20046;-78
2023/03/07 02:44:13;;;;;;;7.65;1.45;;;4.40;99.90;;;;;;5043838;28;20406;-80
2023/03/07 02:46:39;;;;;;;6.63;1.52;;;4.00;99.90;;;;;;5027437;28;20162;-79
2023/03/07 02:49:04;;;;;;;17.58;3.38;;;4.00;99.90;;;;;;5044213;28;20040;-77
2023/03/07 02:51:30;;;;;;;9.75;1.63;;;3.90;99.90;;;;;;5027000;28;20044;-78
2023/03/07 02:53:56;;;;;;;15.85;1.73;;;3.90;99.90;;;;;;5042782;28;20045;-80
2023/03/07 02:56:22;;;;;;;8.68;1.70;;;4.40;99.90;;;;;;5044487;28;20128;-80
2023/03/07 02:58:47;;;;;;;14.52;3.05;;;3.80;99.90;;;;;;5014198;28;21250;-79
2023/03/07 03:01:13;;;;;;;9.57;2.70;;;3.90;99.90;;;;;;5046355;28;20041;-78
2023/03/07 03:03:39;;;;;;;8.95;1.80;;;3.80;99.90;;;;;;5040186;28;20048;-78
2023/03/07 03:06:04;;;;;;;12.63;1.63;;;3.80;99.90;;;;;;5014239;28;20145;-79
2023/03/07 03:08:30;;;;;;;9.40;1.55;;;3.80;99.90;;;;;;5006293;28;20049;-78
2023/03/07 03:10:56;;;;;;;10.20;1.65;;;3.70;99.90;;;;;;5021927;28;20548;-78
2023/03/07 03:13:22;;;;;;;8.93;1.58;;;3.80;99.90;;;;;;5011399;28;20041;-80
2023/03/07 03:15:47;;;;;;;13.60;2.15;;;3.70;99.90;;;;;;5044741;28;20036;-78
2023/03/07 03:18:13;;;;;;;8.63;1.42;;;3.70;99.90;;;;;;5012940;28;20044;-79
2023/03/07 03:20:41;;;;;;;9.05;1.55;;;4.00;99.90;;;;;;5042594;28;20421;-80
2023/03/07 03:23:07;;;;;;;7.78;2.45;;;3.70;99.90;;;;;;5043226;28;20041;-79
2023/03/07 03:25:33;;;;;;;7.20;1.10;;;3.70;99.90;;;;;;5032799;28;20378;-77
2023/03/07 03:27:59;;;;;;;9.45;1.90;;;4.20;99.90;;;;;;5054336;28;20032;-79
2023/03/07 03:30:25;;;;;;;8.80;1.60;;;3.60;99.90;;;;;;5050133;28;20045;-80
2023/03/07 03:32:51;;;;;;;7.15;1.40;;;3.80;99.90;;;;;;5048873;28;20053;-79
2023/03/07 03:35:16;;;;;;;14.38;2.28;;;3.70;99.90;;;;;;5030750;28;20049;-78
2023/03/07 03:37:42;;;;;;;8.52;1.30;;;3.70;99.90;;;;;;5013269;28;20044;-79
2023/03/07 03:40:13;;;;;;;9.70;1.70;;;3.70;99.90;;;;;;5013380;28;20048;-80
2023/03/07 03:42:40;;;;;;;10.98;2.00;;;3.70;99.90;;;;;;5027402;28;20704;-78
2023/03/07 03:45:07;;;;;;;11.20;1.73;;;3.70;99.90;;;;;;5010355;28;20531;-78
2023/03/07 03:47:33;;;;;;;12.93;2.40;;;3.70;99.90;;;;;;5041692;28;20032;-78
2023/03/07 03:49:59;;;;;;;14.82;2.03;;;3.60;99.90;;;;;;5026213;28;20144;-78
2023/03/07 03:52:24;;;;;;;7.15;1.52;;;3.70;99.90;;;;;;5020832;28;20037;-79
2023/03/07 03:54:50;;;;;;;9.07;1.58;;;3.80;99.90;;;;;;5020122;28;20102;-79
2023/03/07 03:57:17;;;;;;;13.15;2.88;;;3.70;99.90;;;;;;5032945;28;20405;-81
2023/03/07 03:59:44;;;;;;;5.40;1.20;;;3.90;99.90;;;;;;5004935;28;20055;-79
2023/03/07 04:02:10;;;;;;;11.43;2.30;;;3.70;99.90;;;;;;5014007;28;20060;-79
2023/03/07 04:04:35;;;;;;;5.90;1.35;;;3.70;99.90;;;;;;5029577;28;20517;-79
2023/03/07 04:07:01;;;;;;;7.35;1.65;;;3.70;99.90;;;;;;5046184;28;20041;-78
2023/03/07 04:09:27;;;;;;;7.65;1.73;;;3.70;99.90;;;;;;4998049;28;20091;-78
2023/03/07 04:11:52;;;;;;;10.00;1.45;;;3.70;99.90;;;;;;5023698;28;20184;-79
2023/03/07 04:14:18;;;;;;;14.38;2.30;;;3.70;99.90;;;;;;5038484;28;20203;-79
2023/03/07 04:16:44;;;;;;;16.20;1.98;;;4.10;99.90;;;;;;4998004;28;20394;-79
2023/03/07 04:19:11;;;;;;;15.27;2.00;;;4.10;99.90;;;;;;5005659;28;20486;-79
2023/03/07 04:21:39;;;;;;;11.95;2.20;;;4.00;99.90;;;;;;5046256;28;20143;-79
2023/03/07 04:24:06;;;;;;;8.27;1.65;;;3.90;99.90;;;;;;5047564;28;20041;-80
2023/03/07 04:26:31;;;;;;;10.07;1.63;;;3.90;99.90;;;;;;5029636;28;20162;-79
2023/03/07 04:28:57;;;;;;;7.68;1.95;;;3.90;99.90;;;;;;5011117;28;20136;-78
2023/03/07 04:31:25;;;;;;;12.10;1.70;;;3.80;99.90;;;;;;5037031;28;20551;-79
2023/03/07 04:33:52;;;;;;;7.95;1.63;;;3.80;99.90;;;;;;5037842;28;20091;-79
2023/03/07 04:36:18;;;;;;;9.30;2.35;;;3.80;99.90;;;;;;5021489;28;20099;-78
2023/03/07 04:38:46;;;;;;;9.82;1.17;;;4.10;99.90;;;;;;5005481;28;20041;-79
2023/03/07 04:41:13;;;;;;;14.75;1.80;;;4.00;99.90;;;;;;5010186;28;20581;-78
2023/03/07 04:43:39;;;;;;;9.20;1.92;;;3.80;99.90;;;;;;5025142;28;20095;-78
2023/03/07 04:46:05;;;;;;;6.65;1.40;;;3.90;99.90;;;;;;5042534;28;20040;-78
2023/03/07 04:48:31;;;;;;;11.02;1.45;;;4.00;99.90;;;;;;5046819;28;20765;-78
2023/03/07 04:50:56;;;;;;;9.13;1.70;;;3.70;99.90;;;;;;5011308;28;20045;-78
2023/03/07 04:53:22;;;;;;;12.30;1.92;;;3.90;99.90;;;;;;5027617;28;20037;-78
2023/03/07 04:55:48;;;;;;;9.73;1.92;;;3.90;99.90;;;;;;5019941;28;20049;-78
2023/03/07 04:58:14;;;;;;;11.23;1.52;;;3.70;99.90;;;;;;5046400;28;20037;-78
2023/03/07 05:00:41;;;;;;;12.50;1.70;;;3.70;99.90;;;;;;5045126;28;20116;-78
2023/03/07 05:03:08;;;;;;;11.50;1.75;;;3.70;99.90;;;;;;5026930;28;20501;-79
2023/03/07 05:05:34;;;;;;;10.13;2.00;;;3.70;99.90;;;;;;5041852;28;20044;-78
2023/03/07 05:08:00;;;;;;;16.15;2.72;;;4.00;99.90;;;;;;5028153;28;20036;-78
2023/03/07 05:10:26;;;;;;;9.13;1.80;;;3.70;99.90;;;;;;5017568;28;20055;-78
2023/03/07 05:12:54;;;;;;;12.40;1.55;;;3.80;99.90;;;;;;5027156;28;20041;-78
2023/03/07 05:15:19;;;;;;;14.88;2.72;;;4.30;99.90;;;;;;5045541;28;20036;-78
2023/03/07 05:17:45;;;;;;;8.32;1.70;;;4.10;99.90;;;;;;5024722;28;20049;-79
2023/03/07 05:20:11;;;;;;;7.93;1.80;;;3.70;99.90;;;;;;5013593;28;20510;-77
2023/03/07 05:22:38;;;;;;;7.78;2.17;;;4.30;99.90;;;;;;5030916;28;20056;-78
2023/03/07 05:25:04;;;;;;;11.88;2.17;;;3.70;99.90;;;;;;5029212;28;20069;-78
2023/03/07 05:27:30;;;;;;;11.90;3.15;;;3.70;99.90;;;;;;5041372;28;20041;-79
2023/03/07 05:29:56;;;;;;;12.60;1.50;;;3.70;99.90;;;;;;4994891;28;20529;-78
2023/03/07 05:32:22;;;;;;;8.60;1.17;;;3.60;99.90;;;;;;5002453;28;20535;-78
2023/03/07 05:34:48;;;;;;;7.40;1.95;;;3.70;99.90;;;;;;5048353;28;20037;-78
2023/03/07 05:37:13;;;;;;;12.43;1.52;;;3.80;99.90;;;;;;5031440;28;20043;-78
2023/03/07 05:39:39;;;;;;;3.78;1.05;;;3.70;99.90;;;;;;5008390;28;20037;-78
2023/03/07 05:42:05;;;;;;;8.27;1.90;;;3.70;99.90;;;;;;5028577;28;20120;-78
2023/03/07 05:44:30;;;;;;;6.47;1.60;;;3.70;99.90;;;;;;5015586;28;20037;-78
2023/03/07 05:46:56;;;;;;;9.27;2.67;;;3.80;99.90;;;;;;5041386;28;20061;-78
2023/03/07 05:49:23;;;;;;;8.18;1.88;;;3.70;99.90;;;;;;5049645;28;20044;-78
2023/03/07 05:51:49;;;;;;;5.78;2.00;;;3.70;99.90;;;;;;5036790;28;20068;-79
2023/03/07 05:54:15;;;;;;;9.48;2.22;;;3.70;99.90;;;;;;5035295;28;20065;-78
2023/03/07 05:56:41;;;;;;;9.10;1.92;;;3.70;99.90;;;;;;5021499;28;20041;-78
2023/03/07 05:59:08;;;;;;;8.98;2.80;;;4.10;99.90;;;;;;5049791;28;20041;-78
2023/03/07 06:01:34;;;;;;;10.02;2.33;;;4.20;99.90;;;;;;5045548;28;20076;-78
2023/03/07 06:03:59;;;;;;;9.20;1.48;;;3.70;99.90;;;;;;5012167;28;20130;-79
2023/03/07 06:06:25;;;;;;;10.90;2.10;;;3.70;99.90;;;;;;4997375;28;20029;-78
2023/03/07 06:08:51;;;;;;;10.80;1.80;;;3.60;99.90;;;;;;5025208;28;20044;-78
2023/03/07 06:11:16;;;;;;;8.55;1.90;;;3.50;99.90;;;;;;4999914;28;20124;-78
2023/03/07 06:13:42;;;;;;;12.90;2.58;;;3.50;99.90;;;;;;5005097;28;20108;-79
2023/03/07 06:16:08;;;;;;;6.05;1.25;;;3.40;99.90;;;;;;5034226;28;20127;-79
2023/03/07 06:18:36;;;;;;;11.65;2.45;;;3.30;99.90;;;;;;5031430;28;20058;-79
2023/03/07 06:21:04;;;;;;;11.43;1.80;;;3.10;99.90;;;;;;5013949;28;20037;-79
2023/03/07 06:23:32;;;;;;;7.35;2.67;;;3.00;99.90;;;;;;5033918;28;20033;-79
2023/03/07 06:26:01;;;;;;;9.18;3.22;;;3.70;99.90;;;;;;5034905;28;20095;-79
2023/03/07 06:28:27;;;;;;;12.48;3.45;;;3.00;99.90;;;;;;5031956;28;20681;-79
2023/03/07 06:30:53;;;;;;;8.07;2.88;;;3.00;99.90;;;;;;5061615;22;20040;-55
2023/03/07 06:33:19;;;;;;;11.13;2.97;;;2.90;99.90;;;;;;5031599;28;20071;-55
2023/03/07 06:35:45;;;;;;;6.28;1.60;;;2.90;99.90;;;;;;5038523;28;20491;-55
2023/03/07 06:38:13;;;;;;;7.60;2.55;;;2.90;99.90;;;;;;5052871;28;20087;-53
2023/03/07 06:40:39;;;;;;;10.40;3.00;;;2.90;99.90;;;;;;5068012;28;20032;-54
2023/03/07 06:43:05;;;;;;;13.55;4.25;;;2.90;99.90;;;;;;5053731;28;20036;-55
2023/03/07 06:45:31;;;;;;;11.52;4.22;;;2.90;99.90;;;;;;5064606;28;20036;-54
2023/03/07 06:47:57;;;;;;;5.72;1.85;;;3.00;99.90;;;;;;5066724;28;20971;-52
2023/03/07 06:50:23;;;;;;;11.48;3.00;;;2.80;99.90;;;;;;5026977;28;20037;-51
2023/03/07 06:52:50;;;;;;;10.43;3.13;;;2.80;99.90;;;;;;5042326;28;20041;-57
2023/03/07 06:55:17;;;;;;;10.95;3.92;;;2.90;99.90;;;;;;5056558;28;20045;-55
2023/03/07 06:57:43;;;;;;;7.93;3.05;;;2.90;99.90;;;;;;5068476;28;20039;-54
2023/03/07 07:00:10;;;;;;;9.52;1.98;;;2.90;99.90;;;;;;5057290;28;20088;-52
2023/03/07 07:02:37;;;;;;;9.60;2.53;;;2.90;99.90;;;;;;5062700;28;20040;-54
2023/03/07 07:05:03;;;;;;;6.78;2.60;;;2.90;99.90;;;;;;5055267;28;20533;-57
2023/03/07 07:07:29;;;;;;;8.05;1.50;;;3.00;99.90;;;;;;5053562;28;20462;-54
2023/03/07 07:09:55;;;;;;;6.55;1.40;;;3.00;99.90;;;;;;5055869;28;20036;-55
2023/03/07 07:12:21;;;;;;;11.13;1.83;;;3.00;99.90;;;;;;5044475;22;20065;-59
2023/03/07 07:14:46;;;;;;;5.70;1.10;;;3.00;99.90;;;;;;5023730;28;20502;-60
2023/03/07 07:17:12;;;;;;;10.43;1.20;;;3.10;99.90;;;;;;5018915;28;20036;-61
2023/03/07 07:19:38;;;;;;;7.85;1.30;;;3.10;99.90;;;;;;5026195;28;20037;-61
2023/03/07 07:22:05;;;;;;;7.07;1.40;;;3.10;99.90;;;;;;5027256;28;20167;-60
2023/03/07 07:24:30;;;;;;;7.00;1.33;;;3.10;99.90;;;;;;5032842;28;20131;-60
2023/03/07 07:26:56;;;;;;;7.05;1.33;;;3.10;99.90;;;;;;5011628;28;20081;-61
2023/03/07 07:29:22;;;;;;;8.13;1.08;;;3.10;99.90;;;;;;5011891;28;20166;-60
2023/03/07 07:31:48;;;;;;;6.05;1.08;;;3.10;99.90;;;;;;5006348;28;20550;-60
2023/03/07 07:34:14;;;;;;;8.07;1.00;;;3.10;99.90;;;;;;5003283;28;20179;-60
2023/03/07 07:36:40;;;;;;;3.15;0.90;;;3.20;99.90;;;;;;5009613;28;20520;-60
2023/03/07 07:39:06;;;;;;;5.57;1.30;;;3.10;99.90;;;;;;5002655;28;20041;-61
2023/03/07 07:41:33;;;;;;;7.40;1.15;;;3.10;99.90;;;;;;5018405;28;20595;-59
2023/03/07 07:43:59;;;;;;;3.72;0.80;;;3.10;99.90;;;;;;5025547;28;20048;-59
2023/03/07 07:46:27;;;;;;;6.75;1.30;;;3.20;99.90;;;;;;5021219;28;20412;-60
2023/03/07 07:48:53;;;;;;;7.35;1.10;;;3.20;99.90;;;;;;5019625;28;20500;-60
2023/03/07 07:51:19;;;;;;;9.30;1.40;;;3.20;99.90;;;;;;5007871;28;20044;-60
2023/03/07 07:53:44;;;;;;;6.50;1.05;;;3.20;99.90;;;;;;5025519;28;20053;-60
2023/03/07 07:56:10;;;;;;;9.57;1.52;;;3.30;99.90;;;;;;5022701;28;20159;-60
2023/03/07 07:58:36;;;;;;;8.43;1.80;;;3.30;99.90;;;;;;5010057;28;20135;-60
2023/03/07 08:01:15;;;;;;;5.15;1.42;;;3.30;99.90;;;;;;5003070;28;20172;-60
2023/03/07 08:03:41;;;;;;;7.00;1.52;;;3.40;99.90;;;;;;5007209;28;20457;-60
2023/03/07 08:06:07;;;;;;;7.35;1.40;;;3.40;99.90;;;;;;5007674;28;20158;-61
2023/03/07 08:08:32;;;;;;;8.20;1.35;;;3.40;99.90;;;;;;5032622;28;20393;-61
2023/03/07 08:10:58;;;;;;;10.13;1.45;;;3.50;99.90;;;;;;5020308;28;20041;-60
2023/03/07 08:13:25;;;;;;;5.03;1.10;;;3.50;99.90;;;;;;4993387;28;20488;-60
2023/03/07 08:15:50;;;;;;;5.55;0.95;;;3.50;99.90;;;;;;5013370;28;20046;-61
2023/03/07 08:18:17;;;;;;;4.78;1.27;;;3.60;99.90;;;;;;5024107;28;20503;-60
2023/03/07 08:20:42;;;;;;;3.85;0.98;;;3.60;99.90;;;;;;5016050;28;20041;-60
2023/03/07 08:23:08;;;;;;;4.55;1.30;;;3.60;99.90;;;;;;4998594;28;20317;-59
2023/03/07 08:25:34;;;;;;;9.77;2.47;;;3.60;99.90;;;;;;5002767;28;20045;-60
2023/03/07 08:28:02;;;;;;;12.43;1.52;;;3.60;99.90;;;;;;5015038;28;20037;-60
2023/03/07 08:30:30;;;;;;;7.22;1.80;;;3.60;99.90;;;;;;5006898;28;20041;-61
2023/03/07 08:32:56;;;;;;;5.88;1.02;;;3.70;99.90;;;;;;5012143;28;20500;-61
2023/03/07 08:35:23;;;;;;;4.50;1.10;;;3.30;99.90;;;;;;4998203;28;20046;-60
2023/03/07 08:37:54;;;;;;;6.70;1.40;;;2.90;99.90;;;;;;5000526;28;20500;-60
2023/03/07 08:40:20;;;;;;;10.95;4.50;;;2.80;99.90;;;;;;5019228;28;20112;-61
2023/03/07 08:42:45;;;;;;;7.53;1.50;;;2.60;99.90;;;;;;5019533;28;20052;-60
2023/03/07 08:45:11;;;;;;;7.70;1.02;;;2.60;99.90;;;;;;4989315;28;20518;-61
2023/03/07 08:47:37;;;;;;;5.85;0.95;;;2.60;99.90;;;;;;5022211;28;20063;-61
2023/03/07 08:50:04;;;;;;;8.10;1.25;;;2.60;99.90;;;;;;5028040;28;20060;-60
2023/03/07 08:52:30;;;;;;;13.65;4.47;;;2.50;99.90;;;;;;5020286;28;20045;-60
2023/03/07 08:54:56;;;;;;;7.95;2.63;;;2.60;99.90;;;;;;5022854;28;20229;-60
2023/03/07 08:57:21;;;;;;;6.28;1.52;;;2.50;99.90;;;;;;5021941;28;20370;-61
2023/03/07 08:59:47;;;;;;;8.60;1.60;;;2.50;99.90;;;;;;5021557;28;20168;-60
2023/03/07 09:02:13;;;;;;;6.72;1.30;;;2.60;99.90;;;;;;5002064;28;20037;-60
2023/03/07 09:04:39;;;;;;;7.82;2.00;;;2.50;99.90;;;;;;5020707;28;20610;-59
2023/03/07 09:07:04;;;;;;;8.57;1.20;;;2.60;99.90;;;;;;4999730;28;20436;-61
2023/03/07 09:09:30;;;;;;;9.32;1.80;;;2.60;99.90;;;;;;5011006;28;20506;-61
2023/03/07 09:11:56;;;;;;;13.18;1.98;;;2.70;99.90;;;;;;5020239;28;20072;-60
2023/03/07 09:14:22;;;;;;;8.02;1.77;;;2.80;99.90;;;;;;4991686;28;20061;-60
2023/03/07 09:16:48;;;;;;;5.60;1.50;;;2.80;99.90;;;;;;5005465;28;20427;-59
2023/03/07 09:19:14;;;;;;;8.95;1.70;;;2.90;99.90;;;;;;5002218;28;20044;-61
2023/03/07 09:21:40;;;;;;;10.48;1.60;;;3.00;99.90;;;;;;5027322;28;20040;-60
2023/03/07 09:24:07;;;;;;;11.10;1.70;;;3.00;99.90;;;;;;5018141;28;20083;-61
2023/03/07 09:26:33;;;;;;;7.43;1.75;;;3.00;99.90;;;;;;5017645;28;20441;-59
2023/03/07 09:28:59;;;;;;;9.15;1.42;;;3.00;99.90;;;;;;5021593;28;20038;-61
2023/03/07 09:31:25;;;;;;;6.80;1.65;;;3.20;99.90;;;;;;5009886;28;20188;-61
2023/03/07 09:33:51;;;;;;;9.45;1.90;;;3.20;99.90;;;;;;4986328;28;20056;-60
2023/03/07 09:36:18;;;;;;;8.93;2.20;;;3.30;99.90;;;;;;5020191;28;20175;-61
2023/03/07 09:38:45;;;;;;;6.00;1.40;;;3.40;99.90;;;;;;5019684;28;20053;-61
2023/03/07 09:41:27;;;;;;;5.55;1.30;;;3.40;99.90;;;;;;5021227;28;20045;-61
2023/03/07 09:44:02;;;;;;;6.53;1.10;;;3.50;99.90;;;;;;5014409;28;20492;-61
2023/03/07 09:46:43;;;;;;;6.78;1.40;;;3.60;99.90;;;;;;5000475;28;20033;-61
2023/03/07 09:49:16;;;;;;;9.88;1.50;;;3.60;99.90;;;;;;5018423;28;20104;-61
2023/03/07 09:51:44;;;;;;;9.07;1.42;;;3.70;99.90;;;;;;5027574;28;20128;-61
2023/03/07 09:54:12;;;;;;;13.20;2.20;;;3.80;99.90;;;;;;5001162;28;20045;-60
2023/03/07 09:56:57;;;;;;;10.85;2.25;;;3.90;99.90;;;;;;5019565;28;20160;-61
2023/03/07 09:59:41;;;;;;;6.78;1.48;;;3.90;99.90;;;;;;5020235;28;20111;-61
2023/03/07 10:02:16;;;;;;;12.52;2.35;;;4.10;99.90;;;;;;5019082;28;20038;-61
2023/03/07 10:04:53;;;;;;;6.47;1.40;;;4.20;99.90;;;;;;5002902;28;20121;-61
2023/03/07 10:07:23;;;;;;;12.18;1.90;;;4.30;99.90;;;;;;4981437;28;20048;-60
2023/03/07 10:10:09;;;;;;;9.82;1.45;;;4.30;99.90;;;;;;5000786;28;20075;-61
2023/03/07 10:12:47;;;;;;;7.80;1.30;;;4.30;99.90;;;;;;5021782;28;20522;-60
2023/03/07 10:15:37;;;;;;;11.75;1.30;;;4.40;99.90;;;;;;5018557;28;20252;-61
2023/03/07 10:18:15;;;;;;;7.03;1.40;;;4.40;99.90;;;;;;5005189;28;20054;-60
2023/03/07 10:20:58;;;;;;;3.92;1.27;;;4.20;99.90;;;;;;5000555;28;20096;-61
2023/03/07 10:23:31;;;;;;;10.02;1.67;;;4.10;99.90;;;;;;5031532;28;20067;-60
2023/03/07 10:26:15;;;;;;;4.75;1.10;;;4.10;99.90;;;;;;5009165;28;20049;-61
2023/03/07 10:28:42;;;;;;;6.90;1.77;;;4.00;99.90;;;;;;5023812;28;20041;-61
2023/03/07 10:31:38;;;;;;;8.65;1.48;;;4.00;99.90;;;;;;5015846;28;20246;-59
2023/03/07 10:34:25;;;;;;;6.57;1.70;;;4.00;99.90;;;;;;5022232;28;20560;-59
2023/03/07 10:36:55;;;;;;;7.03;1.58;;;4.00;99.90;;;;;;5028255;28;20045;-58
2023/03/07 10:39:42;;;;;;;7.03;1.20;;;4.00;99.90;;;;;;5020038;28;20054;-59
2023/03/07 10:42:13;;;;;;;11.00;1.45;;;4.10;99.90;;;;;;5008741;28;20050;-58
2023/03/07 10:44:40;;;;;;;8.13;1.95;;;4.10;99.90;;;;;;5020147;28;20080;-59
2023/03/07 10:47:18;;;;;;;6.90;1.52;;;4.10;99.90;;;;;;5009606;28;20103;-59
2023/03/07 10:49:46;;;;;;;11.98;2.08;;;4.00;99.90;;;;;;5018224;28;20500;-59
2023/03/07 10:52:45;;;;;;;7.50;1.98;;;4.20;99.90;;;;;;4986762;28;20072;-59
2023/03/07 10:55:29;;;;;;;6.35;0.95;;;4.30;99.90;;;;;;5021992;28;20099;-59
2023/03/07 10:58:19;;;;;;;10.50;1.77;;;4.40;99.90;;;;;;5028394;28;20090;-59
2023/03/07 11:01:05;;;;;;;9.45;1.40;;;4.40;99.90;;;;;;5018931;28;20504;-60
2023/03/07 11:03:53;;;;;;;8.68;1.30;;;4.50;99.90;;;;;;5028888;28;20050;-59
2023/03/07 11:06:32;;;;;;;11.57;1.48;;;4.60;99.90;;;;;;5008493;28;20030;-60
2023/03/07 11:09:31;;;;;;;5.40;1.00;;;4.70;99.90;;;;;;5019993;28;20040;-58
2023/03/07 11:12:05;;;;;;;5.82;1.70;;;4.70;99.90;;;;;;5024307;28;20060;-58
2023/03/07 11:14:50;;;;;;;9.82;1.60;;;4.90;99.90;;;;;;5017339;28;20175;-60
2023/03/07 11:17:39;;;;;;;5.22;1.40;;;5.00;99.90;;;;;;5005060;28;20049;-60
2023/03/07 11:20:30;;;;;;;6.45;1.73;;;5.20;99.90;;;;;;5011617;28;20041;-57
2023/03/07 11:23:22;;;;;;;8.75;1.23;;;5.30;99.90;;;;;;4989807;28;20076;-60
2023/03/07 11:25:48;;;;;;;9.52;1.92;;;5.70;99.90;;;;;;5010748;28;20124;-60
2023/03/07 11:28:30;;;;;;;7.43;1.73;;;6.00;99.90;;;;;;5025445;28;20033;-60
2023/03/07 11:31:07;;;;;;;6.78;1.25;;;6.00;99.90;;;;;;4980299;28;20116;-60
2023/03/07 11:33:36;;;;;;;10.40;2.10;;;6.10;99.90;;;;;;5005114;28;20311;-60
2023/03/07 11:36:04;;;;;;;10.23;2.00;;;5.90;99.90;;;;;;5024940;28;20622;-60
2023/03/07 11:38:59;;;;;;;7.65;1.40;;;5.70;99.90;;;;;;5023657;28;20034;-60
2023/03/07 11:42:02;;;;;;;9.45;1.20;;;5.40;99.90;;;;;;5003336;28;20563;-60
2023/03/07 11:44:59;;;;;;;10.80;2.17;;;5.30;99.90;;;;;;5022146;28;20372;-62
2023/03/07 11:47:58;;;;;;;10.95;1.63;;;5.40;99.90;;;;;;5016807;28;20038;-60
2023/03/07 11:50:28;;;;;;;3.67;1.15;;;5.80;99.90;;;;;;5021933;28;20045;-60
2023/03/07 11:53:15;;;;;;;5.35;1.00;;;6.00;99.90;;;;;;5016993;28;20053;-61
2023/03/07 11:55:56;;;;;;;4.95;1.42;;;6.30;99.90;;;;;;5017642;28;20037;-60
2023/03/07 11:58:50;;;;;;;4.38;1.10;;;6.50;99.10;;;;;;5017009;28;20124;-60
2023/03/07 12:01:27;;;;;;;10.00;1.52;;;6.40;98.20;;;;;;5018805;28;20435;-61
2023/03/07 12:03:58;;;;;;;9.40;1.35;;;6.50;97.90;;;;;;5003576;28;20833;-61
2023/03/07 12:06:55;;;;;;;7.75;1.15;;;6.50;97.50;;;;;;4999195;28;20052;-59
2023/03/07 12:09:56;;;;;;;10.30;1.70;;;6.60;97.60;;;;;;5005646;28;20578;-61
2023/03/07 12:12:43;;;;;;;6.95;1.05;;;6.80;98.60;;;;;;5004265;28;20099;-60
2023/03/07 12:15:40;;;;;;;4.15;1.00;;;6.90;97.40;;;;;;5006457;28;20053;-60
2023/03/07 12:18:24;;;;;;;7.68;0.82;;;7.20;98.50;;;;;;5001726;28;20041;-61
2023/03/07 12:21:08;;;;;;;4.18;0.95;;;7.30;98.30;;;;;;5022563;28;20133;-60
2023/03/07 12:23:37;;;;;;;;;;;7.00;97.30;;;;;;5024743;28;20064;-60
2023/03/07 12:26:11;;;;;;;5.70;1.33;;;6.70;99.40;;;;;;5028045;28;19917;-60
2023/03/07 12:28:54;;;;;;;5.85;1.45;;;6.50;99.90;;;;;;5019197;28;20113;-60
2023/03/07 12:31:41;;;;;;;8.27;1.30;;;6.20;99.90;;;;;;5027627;28;20156;-60
2023/03/07 12:34:29;;;;;;;5.65;1.60;;;6.10;99.90;;;;;;5021988;28;20112;-61
2023/03/07 12:36:57;;;;;;;6.80;1.10;;;5.90;99.90;;;;;;5023543;28;20048;-60
2023/03/07 12:39:39;;;;;;;8.07;2.10;;;5.60;99.90;;;;;;4994778;28;20037;-61
2023/03/07 12:42:49;;;;;;;4.18;0.93;;;5.50;99.90;;;;;;5022620;28;20280;-61
2023/03/07 12:45:27;;;;;;;9.38;2.30;;;5.70;99.90;;;;;;5009592;28;20073;-61
2023/03/07 12:47:52;;;;;;;9.48;1.85;;;6.20;99.90;;;;;;5025310;28;20506;-61
2023/03/07 12:50:29;;;;;;;10.15;2.42;;;6.60;99.90;;;;;;5007062;28;20037;-60
2023/03/07 12:53:04;;;;;;;7.45;2.05;;;6.90;99.90;;;;;;5023195;28;20100;-61
2023/03/07 12:55:50;;;;;;;14.63;2.85;;;6.70;99.90;;;;;;5007414;28;20113;-60
2023/03/07 12:58:34;;;;;;;6.43;1.17;;;6.50;99.90;;;;;;5034254;28;20495;-60
2023/03/07 13:01:16;;;;;;;9.40;1.60;;;6.20;99.90;;;;;;5012906;28;20041;-61
2023/03/07 13:04:21;;;;;;;6.38;1.48;;;5.70;99.90;;;;;;5025393;28;20049;-61
2023/03/07 13:06:48;;;;;;;9.63;2.58;;;5.50;99.90;;;;;;5008667;28;20041;-60
2023/03/07 13:09:24;;;;;;;11.15;2.22;;;5.40;99.90;;;;;;5028563;28;20219;-61